sensor_id;sensor_type;location;lat;lon;timestamp;temperature;humidity
42031;DHT22;27709;52.036;5.906;2023-08-08T00:00:06;15.70;99.90
42031;DHT22;27709;52.036;5.906;2023-08-08T00:02:33;15.60;99.90
42031;DHT22;27709;52.036;5.906;2023-08-08T00:04:59;15.60;99.90
42031;DHT22;27709;52.036;5.906;2023-08-08T00:07:24;15.60;99.90
42031;DHT22;27709;52.036;5.906;2023-08-08T00:09:50;15.60;99.90
42031;DHT22;27709;52.036;5.906;2023-08-08T00:12:16;15.50;99.90
42031;DHT22;27709;52.036;5.906;2023-08-08T00:14:41;15.50;99.90
42031;DHT22;27709;52.036;5.906;2023-08-08T00:17:07;15.60;99.90
42031;DHT22;27709;52.036;5.906;2023-08-08T00:19:32;15.60;99.90
42031;DHT22;27709;52.036;5.906;2023-08-08T00:21:58;15.70;99.90
42031;DHT22;27709;52.036;5.906;2023-08-08T00:24:23;15.70;99.90
42031;DHT22;27709;52.036;5.906;2023-08-08T00:26:49;15.70;99.90
42031;DHT22;27709;52.036;5.906;2023-08-08T00:29:14;15.80;99.90
42031;DHT22;27709;52.036;5.906;2023-08-08T00:31:40;15.80;99.90
42031;DHT22;27709;52.036;5.906;2023-08-08T00:34:05;15.90;99.90
42031;DHT22;27709;52.036;5.906;2023-08-08T00:36:31;15.90;99.90
42031;DHT22;27709;52.036;5.906;2023-08-08T00:38:56;15.90;99.90
42031;DHT22;27709;52.036;5.906;2023-08-08T00:41:22;15.90;99.90
42031;DHT22;27709;52.036;5.906;2023-08-08T00:43:47;16.00;99.90
42031;DHT22;27709;52.036;5.906;2023-08-08T00:46:20;16.00;99.90
42031;DHT22;27709;52.036;5.906;2023-08-08T00:48:46;16.10;99.90
42031;DHT22;27709;52.036;5.906;2023-08-08T00:51:11;16.00;99.90
42031;DHT22;27709;52.036;5.906;2023-08-08T00:53:37;16.10;99.90
42031;DHT22;27709;52.036;5.906;2023-08-08T00:56:02;16.10;99.90
42031;DHT22;27709;52.036;5.906;2023-08-08T00:58:28;16.10;99.90
42031;DHT22;27709;52.036;5.906;2023-08-08T01:00:55;16.10;99.90
42031;DHT22;27709;52.036;5.906;2023-08-08T01:03:23;16.10;99.90
42031;DHT22;27709;52.036;5.906;2023-08-08T01:05:53;16.20;99.90
42031;DHT22;27709;52.036;5.906;2023-08-08T01:08:27;16.20;99.90
42031;DHT22;27709;52.036;5.906;2023-08-08T01:10:56;16.20;99.90
42031;DHT22;27709;52.036;5.906;2023-08-08T01:13:24;16.20;99.90
42031;DHT22;27709;52.036;5.906;2023-08-08T01:15:50;16.20;99.90
42031;DHT22;27709;52.036;5.906;2023-08-08T01:18:19;16.20;99.90
42031;DHT22;27709;52.036;5.906;2023-08-08T01:20:44;16.20;99.90
42031;DHT22;27709;52.036;5.906;2023-08-08T01:26:04;16.30;99.90
42031;DHT22;27709;52.036;5.906;2023-08-08T01:28:29;16.20;99.90
42031;DHT22;27709;52.036;5.906;2023-08-08T01:30:55;16.20;99.90
42031;DHT22;27709;52.036;5.906;2023-08-08T01:33:21;16.20;99.90
42031;DHT22;27709;52.036;5.906;2023-08-08T01:35:54;16.20;99.90
42031;DHT22;27709;52.036;5.906;2023-08-08T01:38:42;16.20;99.90
42031;DHT22;27709;52.036;5.906;2023-08-08T01:41:09;16.10;99.90
42031;DHT22;27709;52.036;5.906;2023-08-08T01:43:39;16.10;99.90
42031;DHT22;27709;52.036;5.906;2023-08-08T01:46:07;16.10;99.90
42031;DHT22;27709;52.036;5.906;2023-08-08T01:48:32;16.00;99.90
42031;DHT22;27709;52.036;5.906;2023-08-08T01:50:58;16.00;99.90
42031;DHT22;27709;52.036;5.906;2023-08-08T01:53:24;16.10;99.90
42031;DHT22;27709;52.036;5.906;2023-08-08T01:55:50;16.00;99.90
42031;DHT22;27709;52.036;5.906;2023-08-08T01:58:15;16.00;99.90
42031;DHT22;27709;52.036;5.906;2023-08-08T02:00:41;16.00;99.90
42031;DHT22;27709;52.036;5.906;2023-08-08T02:03:09;16.00;99.90
42031;DHT22;27709;52.036;5.906;2023-08-08T02:05:34;16.00;99.90
42031;DHT22;27709;52.036;5.906;2023-08-08T02:08:00;15.90;99.90
42031;DHT22;27709;52.036;5.906;2023-08-08T02:10:25;15.80;99.90
42031;DHT22;27709;52.036;5.906;2023-08-08T02:12:51;15.80;99.90
42031;DHT22;27709;52.036;5.906;2023-08-08T02:15:17;15.70;99.90
42031;DHT22;27709;52.036;5.906;2023-08-08T02:17:42;15.70;99.90
42031;DHT22;27709;52.036;5.906;2023-08-08T02:20:08;15.70;99.90
42031;DHT22;27709;52.036;5.906;2023-08-08T02:22:34;15.70;99.90
42031;DHT22;27709;52.036;5.906;2023-08-08T02:24:59;15.70;99.90
42031;DHT22;27709;52.036;5.906;2023-08-08T02:27:25;15.70;99.90
42031;DHT22;27709;52.036;5.906;2023-08-08T02:29:51;15.70;99.90
42031;DHT22;27709;52.036;5.906;2023-08-08T02:32:16;15.70;99.90
42031;DHT22;27709;52.036;5.906;2023-08-08T02:34:42;15.60;99.90
42031;DHT22;27709;52.036;5.906;2023-08-08T02:37:08;15.60;99.90
42031;DHT22;27709;52.036;5.906;2023-08-08T02:39:34;15.60;99.90
42031;DHT22;27709;52.036;5.906;2023-08-08T02:41:59;15.50;99.90
42031;DHT22;27709;52.036;5.906;2023-08-08T02:44:25;15.50;99.90
42031;DHT22;27709;52.036;5.906;2023-08-08T02:46:50;15.50;99.90
42031;DHT22;27709;52.036;5.906;2023-08-08T02:49:16;15.50;99.90
42031;DHT22;27709;52.036;5.906;2023-08-08T02:51:41;15.50;99.90
42031;DHT22;27709;52.036;5.906;2023-08-08T02:54:07;15.50;99.90
42031;DHT22;27709;52.036;5.906;2023-08-08T02:56:33;15.40;99.90
42031;DHT22;27709;52.036;5.906;2023-08-08T02:58:58;15.50;99.90
42031;DHT22;27709;52.036;5.906;2023-08-08T03:01:24;15.40;99.90
42031;DHT22;27709;52.036;5.906;2023-08-08T03:03:51;15.50;99.90
42031;DHT22;27709;52.036;5.906;2023-08-08T03:06:16;15.50;99.90
42031;DHT22;27709;52.036;5.906;2023-08-08T03:08:42;15.60;99.90
42031;DHT22;27709;52.036;5.906;2023-08-08T03:11:08;15.50;99.90
42031;DHT22;27709;52.036;5.906;2023-08-08T03:13:33;15.50;99.90
42031;DHT22;27709;52.036;5.906;2023-08-08T03:15:59;15.50;99.90
42031;DHT22;27709;52.036;5.906;2023-08-08T03:18:26;15.60;99.90
42031;DHT22;27709;52.036;5.906;2023-08-08T03:20:53;15.60;99.90
42031;DHT22;27709;52.036;5.906;2023-08-08T03:23:23;15.60;99.90
42031;DHT22;27709;52.036;5.906;2023-08-08T03:25:49;15.70;99.90
42031;DHT22;27709;52.036;5.906;2023-08-08T03:28:15;15.70;99.90
42031;DHT22;27709;52.036;5.906;2023-08-08T03:30:42;15.70;99.90
42031;DHT22;27709;52.036;5.906;2023-08-08T03:33:07;15.80;99.90
42031;DHT22;27709;52.036;5.906;2023-08-08T03:35:34;15.80;99.90
42031;DHT22;27709;52.036;5.906;2023-08-08T03:37:59;15.80;99.90
42031;DHT22;27709;52.036;5.906;2023-08-08T03:40:25;15.80;99.90
42031;DHT22;27709;52.036;5.906;2023-08-08T03:42:50;15.80;99.90
42031;DHT22;27709;52.036;5.906;2023-08-08T03:45:16;15.80;99.90
42031;DHT22;27709;52.036;5.906;2023-08-08T03:47:41;15.80;99.90
42031;DHT22;27709;52.036;5.906;2023-08-08T03:50:07;15.80;99.90
42031;DHT22;27709;52.036;5.906;2023-08-08T03:52:34;15.80;99.90
42031;DHT22;27709;52.036;5.906;2023-08-08T03:55:02;15.80;99.90
42031;DHT22;27709;52.036;5.906;2023-08-08T03:57:28;15.80;99.90
42031;DHT22;27709;52.036;5.906;2023-08-08T03:59:54;15.70;99.90
42031;DHT22;27709;52.036;5.906;2023-08-08T04:02:19;15.70;99.90
42031;DHT22;27709;52.036;5.906;2023-08-08T04:04:45;15.70;99.90
42031;DHT22;27709;52.036;5.906;2023-08-08T04:07:10;15.70;99.90
42031;DHT22;27709;52.036;5.906;2023-08-08T04:09:36;15.80;99.90
42031;DHT22;27709;52.036;5.906;2023-08-08T04:12:01;15.80;99.90
42031;DHT22;27709;52.036;5.906;2023-08-08T04:14:27;15.90;99.90
42031;DHT22;27709;52.036;5.906;2023-08-08T04:16:53;15.90;99.90
42031;DHT22;27709;52.036;5.906;2023-08-08T04:19:18;15.90;99.90
42031;DHT22;27709;52.036;5.906;2023-08-08T04:21:44;15.90;99.90
42031;DHT22;27709;52.036;5.906;2023-08-08T04:24:09;15.90;99.90
42031;DHT22;27709;52.036;5.906;2023-08-08T04:26:35;15.90;99.90
42031;DHT22;27709;52.036;5.906;2023-08-08T04:29:00;15.80;99.90
42031;DHT22;27709;52.036;5.906;2023-08-08T04:31:26;15.90;99.90
42031;DHT22;27709;52.036;5.906;2023-08-08T04:33:52;15.90;99.90
42031;DHT22;27709;52.036;5.906;2023-08-08T04:36:23;15.90;99.90
42031;DHT22;27709;52.036;5.906;2023-08-08T04:38:49;15.90;99.90
42031;DHT22;27709;52.036;5.906;2023-08-08T04:41:14;15.90;99.90
42031;DHT22;27709;52.036;5.906;2023-08-08T04:43:40;15.90;99.90
42031;DHT22;27709;52.036;5.906;2023-08-08T04:46:05;15.90;99.90
42031;DHT22;27709;52.036;5.906;2023-08-08T04:48:31;16.00;99.90
42031;DHT22;27709;52.036;5.906;2023-08-08T04:50:57;16.00;99.90
42031;DHT22;27709;52.036;5.906;2023-08-08T04:53:23;16.00;99.90
42031;DHT22;27709;52.036;5.906;2023-08-08T04:55:49;16.10;99.90
42031;DHT22;27709;52.036;5.906;2023-08-08T04:58:14;16.10;99.90
42031;DHT22;27709;52.036;5.906;2023-08-08T05:00:40;16.10;99.90
42031;DHT22;27709;52.036;5.906;2023-08-08T05:03:05;16.20;99.90
42031;DHT22;27709;52.036;5.906;2023-08-08T05:05:31;16.20;99.90
42031;DHT22;27709;52.036;5.906;2023-08-08T05:07:56;16.30;99.90
42031;DHT22;27709;52.036;5.906;2023-08-08T05:10:22;16.30;99.90
42031;DHT22;27709;52.036;5.906;2023-08-08T05:12:48;16.30;99.90
42031;DHT22;27709;52.036;5.906;2023-08-08T05:15:13;16.30;99.90
42031;DHT22;27709;52.036;5.906;2023-08-08T05:17:39;16.40;99.90
42031;DHT22;27709;52.036;5.906;2023-08-08T05:20:05;16.40;99.90
42031;DHT22;27709;52.036;5.906;2023-08-08T05:22:31;16.40;99.90
42031;DHT22;27709;52.036;5.906;2023-08-08T05:24:56;16.50;99.90
42031;DHT22;27709;52.036;5.906;2023-08-08T05:27:22;16.50;99.90
42031;DHT22;27709;52.036;5.906;2023-08-08T05:29:47;16.50;99.90
42031;DHT22;27709;52.036;5.906;2023-08-08T05:32:13;16.50;99.90
42031;DHT22;27709;52.036;5.906;2023-08-08T05:34:38;16.50;99.90
42031;DHT22;27709;52.036;5.906;2023-08-08T05:37:05;16.60;99.90
42031;DHT22;27709;52.036;5.906;2023-08-08T05:39:31;16.70;99.90
42031;DHT22;27709;52.036;5.906;2023-08-08T05:41:56;16.70;99.90
42031;DHT22;27709;52.036;5.906;2023-08-08T05:44:22;16.70;99.90
42031;DHT22;27709;52.036;5.906;2023-08-08T05:46:47;16.90;99.90
42031;DHT22;27709;52.036;5.906;2023-08-08T05:49:13;17.00;99.90
42031;DHT22;27709;52.036;5.906;2023-08-08T05:51:40;17.10;99.90
42031;DHT22;27709;52.036;5.906;2023-08-08T05:54:05;17.20;99.90
42031;DHT22;27709;52.036;5.906;2023-08-08T05:56:35;17.30;99.90
42031;DHT22;27709;52.036;5.906;2023-08-08T05:59:04;17.30;99.90
42031;DHT22;27709;52.036;5.906;2023-08-08T06:01:30;17.20;99.90
42031;DHT22;27709;52.036;5.906;2023-08-08T06:03:56;17.30;99.90
42031;DHT22;27709;52.036;5.906;2023-08-08T06:06:25;17.50;99.90
42031;DHT22;27709;52.036;5.906;2023-08-08T06:08:50;17.60;99.90
42031;DHT22;27709;52.036;5.906;2023-08-08T06:11:16;17.70;99.90
42031;DHT22;27709;52.036;5.906;2023-08-08T06:13:41;17.70;99.90
42031;DHT22;27709;52.036;5.906;2023-08-08T06:16:07;17.70;99.90
42031;DHT22;27709;52.036;5.906;2023-08-08T06:18:36;17.70;99.90
42031;DHT22;27709;52.036;5.906;2023-08-08T06:21:01;17.70;99.90
42031;DHT22;27709;52.036;5.906;2023-08-08T06:23:27;17.70;99.90
42031;DHT22;27709;52.036;5.906;2023-08-08T06:25:53;18.10;99.90
42031;DHT22;27709;52.036;5.906;2023-08-08T06:28:18;19.40;99.90
42031;DHT22;27709;52.036;5.906;2023-08-08T06:30:44;21.30;99.90
42031;DHT22;27709;52.036;5.906;2023-08-08T06:33:09;23.20;98.60
42031;DHT22;27709;52.036;5.906;2023-08-08T06:35:35;24.60;95.50
42031;DHT22;27709;52.036;5.906;2023-08-08T06:38:00;25.80;93.70
42031;DHT22;27709;52.036;5.906;2023-08-08T06:40:26;26.80;91.50
42031;DHT22;27709;52.036;5.906;2023-08-08T06:42:52;27.50;90.50
42031;DHT22;27709;52.036;5.906;2023-08-08T06:45:18;28.20;89.30
42031;DHT22;27709;52.036;5.906;2023-08-08T06:47:44;28.70;86.00
42031;DHT22;27709;52.036;5.906;2023-08-08T06:50:10;28.80;85.80
42031;DHT22;27709;52.036;5.906;2023-08-08T06:52:36;29.20;84.00
42031;DHT22;27709;52.036;5.906;2023-08-08T06:55:01;29.60;82.60
42031;DHT22;27709;52.036;5.906;2023-08-08T06:57:32;30.20;80.60
42031;DHT22;27709;52.036;5.906;2023-08-08T06:59:57;30.60;79.70
42031;DHT22;27709;52.036;5.906;2023-08-08T07:02:23;31.00;78.50
42031;DHT22;27709;52.036;5.906;2023-08-08T07:04:48;31.40;77.40
42031;DHT22;27709;52.036;5.906;2023-08-08T07:07:14;31.60;76.70
42031;DHT22;27709;52.036;5.906;2023-08-08T07:09:40;32.00;75.80
42031;DHT22;27709;52.036;5.906;2023-08-08T07:12:07;32.30;73.50
42031;DHT22;27709;52.036;5.906;2023-08-08T07:14:33;32.60;73.80
42031;DHT22;27709;52.036;5.906;2023-08-08T07:16:58;32.40;72.30
42031;DHT22;27709;52.036;5.906;2023-08-08T07:19:24;31.40;72.40
42031;DHT22;27709;52.036;5.906;2023-08-08T07:21:50;30.30;74.20
42031;DHT22;27709;52.036;5.906;2023-08-08T07:24:16;29.70;75.90
42031;DHT22;27709;52.036;5.906;2023-08-08T07:26:42;30.20;77.00
42031;DHT22;27709;52.036;5.906;2023-08-08T07:29:07;30.90;76.10
42031;DHT22;27709;52.036;5.906;2023-08-08T07:31:33;31.80;72.90
42031;DHT22;27709;52.036;5.906;2023-08-08T07:33:58;32.60;71.90
42031;DHT22;27709;52.036;5.906;2023-08-08T07:36:24;33.10;69.50
42031;DHT22;27709;52.036;5.906;2023-08-08T07:38:53;33.40;69.10
42031;DHT22;27709;52.036;5.906;2023-08-08T07:41:21;33.50;67.00
42031;DHT22;27709;52.036;5.906;2023-08-08T07:43:49;33.00;66.30
42031;DHT22;27709;52.036;5.906;2023-08-08T07:46:14;31.70;67.10
42031;DHT22;27709;52.036;5.906;2023-08-08T07:48:40;31.50;70.00
42031;DHT22;27709;52.036;5.906;2023-08-08T07:51:05;31.90;68.40
42031;DHT22;27709;52.036;5.906;2023-08-08T07:53:31;32.40;67.50
42031;DHT22;27709;52.036;5.906;2023-08-08T07:55:56;33.20;68.10
42031;DHT22;27709;52.036;5.906;2023-08-08T07:58:22;33.60;65.50
42031;DHT22;27709;52.036;5.906;2023-08-08T08:00:54;33.80;65.60
42031;DHT22;27709;52.036;5.906;2023-08-08T08:03:20;34.30;64.70
42031;DHT22;27709;52.036;5.906;2023-08-08T08:05:45;34.70;63.50
42031;DHT22;27709;52.036;5.906;2023-08-08T08:08:11;34.80;62.50
42031;DHT22;27709;52.036;5.906;2023-08-08T08:10:37;34.90;61.70
42031;DHT22;27709;52.036;5.906;2023-08-08T08:13:02;33.80;61.00
42031;DHT22;27709;52.036;5.906;2023-08-08T08:15:28;32.40;63.20
42031;DHT22;27709;52.036;5.906;2023-08-08T08:17:54;31.70;66.00
42031;DHT22;27709;52.036;5.906;2023-08-08T08:20:19;31.90;65.80
42031;DHT22;27709;52.036;5.906;2023-08-08T08:22:45;31.60;66.30
42031;DHT22;27709;52.036;5.906;2023-08-08T08:25:11;31.80;64.00
42031;DHT22;27709;52.036;5.906;2023-08-08T08:27:37;32.30;63.60
42031;DHT22;27709;52.036;5.906;2023-08-08T08:30:06;32.50;64.50
42031;DHT22;27709;52.036;5.906;2023-08-08T08:32:34;32.90;63.60
42031;DHT22;27709;52.036;5.906;2023-08-08T08:35:01;32.30;63.50
42031;DHT22;27709;52.036;5.906;2023-08-08T08:37:26;31.90;62.90
42031;DHT22;27709;52.036;5.906;2023-08-08T08:39:52;30.80;62.60
42031;DHT22;27709;52.036;5.906;2023-08-08T08:42:23;29.90;66.00
42031;DHT22;27709;52.036;5.906;2023-08-08T08:44:49;30.40;65.80
42031;DHT22;27709;52.036;5.906;2023-08-08T08:47:17;30.80;64.60
42031;DHT22;27709;52.036;5.906;2023-08-08T08:49:45;29.90;64.40
42031;DHT22;27709;52.036;5.906;2023-08-08T08:52:11;29.70;66.00
42031;DHT22;27709;52.036;5.906;2023-08-08T08:54:37;29.00;65.50
42031;DHT22;27709;52.036;5.906;2023-08-08T08:57:04;28.00;66.10
42031;DHT22;27709;52.036;5.906;2023-08-08T08:59:29;27.50;67.20
42031;DHT22;27709;52.036;5.906;2023-08-08T09:01:56;27.20;68.50
42031;DHT22;27709;52.036;5.906;2023-08-08T09:04:22;27.00;66.90
42031;DHT22;27709;52.036;5.906;2023-08-08T09:06:49;26.30;67.70
42031;DHT22;27709;52.036;5.906;2023-08-08T09:09:15;25.70;70.20
42031;DHT22;27709;52.036;5.906;2023-08-08T09:11:51;25.60;72.30
42031;DHT22;27709;52.036;5.906;2023-08-08T09:14:21;26.40;71.90
42031;DHT22;27709;52.036;5.906;2023-08-08T09:16:49;26.70;70.10
42031;DHT22;27709;52.036;5.906;2023-08-08T09:19:15;26.50;70.20
42031;DHT22;27709;52.036;5.906;2023-08-08T09:21:41;26.10;70.80
42031;DHT22;27709;52.036;5.906;2023-08-08T09:24:07;25.90;71.40
42031;DHT22;27709;52.036;5.906;2023-08-08T09:26:33;26.20;71.20
42031;DHT22;27709;52.036;5.906;2023-08-08T09:29:00;26.50;69.00
42031;DHT22;27709;52.036;5.906;2023-08-08T09:31:26;26.10;70.10
42031;DHT22;27709;52.036;5.906;2023-08-08T09:33:56;25.80;70.90
42031;DHT22;27709;52.036;5.906;2023-08-08T09:36:22;25.70;72.70
42031;DHT22;27709;52.036;5.906;2023-08-08T09:38:49;25.50;71.20
42031;DHT22;27709;52.036;5.906;2023-08-08T09:41:18;25.30;71.30
42031;DHT22;27709;52.036;5.906;2023-08-08T09:43:44;24.90;71.30
42031;DHT22;27709;52.036;5.906;2023-08-08T09:46:10;24.60;72.40
42031;DHT22;27709;52.036;5.906;2023-08-08T09:48:38;24.50;73.60
42031;DHT22;27709;52.036;5.906;2023-08-08T09:51:04;24.40;72.80
42031;DHT22;27709;52.036;5.906;2023-08-08T09:53:31;24.50;74.70
42031;DHT22;27709;52.036;5.906;2023-08-08T09:55:57;25.00;74.80
42031;DHT22;27709;52.036;5.906;2023-08-08T09:58:23;25.10;73.80
42031;DHT22;27709;52.036;5.906;2023-08-08T10:00:49;24.90;72.70
42031;DHT22;27709;52.036;5.906;2023-08-08T10:03:16;24.80;71.60
42031;DHT22;27709;52.036;5.906;2023-08-08T10:05:45;25.30;71.10
42031;DHT22;27709;52.036;5.906;2023-08-08T10:08:14;25.50;72.10
42031;DHT22;27709;52.036;5.906;2023-08-08T10:10:41;25.80;72.90
42031;DHT22;27709;52.036;5.906;2023-08-08T10:13:08;26.50;72.80
42031;DHT22;27709;52.036;5.906;2023-08-08T10:15:37;26.40;68.60
42031;DHT22;27709;52.036;5.906;2023-08-08T10:18:03;26.30;68.80
42031;DHT22;27709;52.036;5.906;2023-08-08T10:20:31;26.20;69.00
42031;DHT22;27709;52.036;5.906;2023-08-08T10:22:58;25.80;69.40
42031;DHT22;27709;52.036;5.906;2023-08-08T10:25:28;25.50;69.10
42031;DHT22;27709;52.036;5.906;2023-08-08T10:28:09;25.10;70.50
42031;DHT22;27709;52.036;5.906;2023-08-08T10:30:59;24.80;70.50
42031;DHT22;27709;52.036;5.906;2023-08-08T10:33:42;24.60;71.10
42031;DHT22;27709;52.036;5.906;2023-08-08T10:36:09;24.40;70.60
42031;DHT22;27709;52.036;5.906;2023-08-08T10:38:43;24.20;71.10
42031;DHT22;27709;52.036;5.906;2023-08-08T10:41:14;24.00;71.70
42031;DHT22;27709;52.036;5.906;2023-08-08T10:43:49;23.80;72.70
42031;DHT22;27709;52.036;5.906;2023-08-08T10:46:26;23.60;73.30
42031;DHT22;27709;52.036;5.906;2023-08-08T10:48:53;23.50;74.10
42031;DHT22;27709;52.036;5.906;2023-08-08T10:51:19;23.80;73.60
42031;DHT22;27709;52.036;5.906;2023-08-08T10:53:45;24.00;73.10
42031;DHT22;27709;52.036;5.906;2023-08-08T10:56:14;24.10;72.20
42031;DHT22;27709;52.036;5.906;2023-08-08T10:58:41;23.90;72.70
42031;DHT22;27709;52.036;5.906;2023-08-08T11:01:08;23.90;74.20
42031;DHT22;27709;52.036;5.906;2023-08-08T11:03:39;23.90;72.90
42031;DHT22;27709;52.036;5.906;2023-08-08T11:06:08;24.00;71.90
42031;DHT22;27709;52.036;5.906;2023-08-08T11:08:35;24.00;72.20
42031;DHT22;27709;52.036;5.906;2023-08-08T11:11:03;24.10;72.30
42031;DHT22;27709;52.036;5.906;2023-08-08T11:13:29;24.10;71.40
42031;DHT22;27709;52.036;5.906;2023-08-08T11:15:55;24.10;71.60
42031;DHT22;27709;52.036;5.906;2023-08-08T11:18:22;23.80;71.80
42031;DHT22;27709;52.036;5.906;2023-08-08T11:20:49;23.90;73.90
42031;DHT22;27709;52.036;5.906;2023-08-08T11:23:15;24.00;73.40
42031;DHT22;27709;52.036;5.906;2023-08-08T11:25:44;24.20;73.40
42031;DHT22;27709;52.036;5.906;2023-08-08T11:28:11;24.30;73.80
42031;DHT22;27709;52.036;5.906;2023-08-08T11:30:40;24.20;72.60
42031;DHT22;27709;52.036;5.906;2023-08-08T11:33:06;24.10;73.10
42031;DHT22;27709;52.036;5.906;2023-08-08T11:35:32;23.90;73.70
42031;DHT22;27709;52.036;5.906;2023-08-08T11:38:00;23.90;75.60
42031;DHT22;27709;52.036;5.906;2023-08-08T11:40:27;24.10;74.00
42031;DHT22;27709;52.036;5.906;2023-08-08T11:42:54;24.30;74.10
42031;DHT22;27709;52.036;5.906;2023-08-08T11:45:22;24.50;73.30
42031;DHT22;27709;52.036;5.906;2023-08-08T11:47:49;24.60;73.00
42031;DHT22;27709;52.036;5.906;2023-08-08T11:50:15;24.80;72.40
42031;DHT22;27709;52.036;5.906;2023-08-08T11:52:42;24.80;71.60
42031;DHT22;27709;52.036;5.906;2023-08-08T11:55:09;24.70;71.10
42031;DHT22;27709;52.036;5.906;2023-08-08T11:57:36;24.60;70.40
42031;DHT22;27709;52.036;5.906;2023-08-08T12:00:10;24.60;72.70
42031;DHT22;27709;52.036;5.906;2023-08-08T12:02:39;24.60;72.20
42031;DHT22;27709;52.036;5.906;2023-08-08T12:07:41;24.50;72.50
42031;DHT22;27709;52.036;5.906;2023-08-08T12:10:22;24.50;73.00
42031;DHT22;27709;52.036;5.906;2023-08-08T12:12:58;24.40;72.20
42031;DHT22;27709;52.036;5.906;2023-08-08T12:15:35;24.20;72.60
42031;DHT22;27709;52.036;5.906;2023-08-08T12:18:02;24.10;72.20
42031;DHT22;27709;52.036;5.906;2023-08-08T12:20:29;24.00;73.00
42031;DHT22;27709;52.036;5.906;2023-08-08T12:22:58;24.00;72.70
42031;DHT22;27709;52.036;5.906;2023-08-08T12:25:24;24.10;74.50
42031;DHT22;27709;52.036;5.906;2023-08-08T12:27:49;24.20;73.50
42031;DHT22;27709;52.036;5.906;2023-08-08T12:30:16;24.30;72.50
42031;DHT22;27709;52.036;5.906;2023-08-08T12:32:43;24.30;72.60
42031;DHT22;27709;52.036;5.906;2023-08-08T12:35:12;24.40;72.50
42031;DHT22;27709;52.036;5.906;2023-08-08T12:37:38;24.50;72.90
42031;DHT22;27709;52.036;5.906;2023-08-08T12:40:04;24.70;72.50
42031;DHT22;27709;52.036;5.906;2023-08-08T12:42:32;24.80;72.10
42031;DHT22;27709;52.036;5.906;2023-08-08T12:44:59;24.80;70.50
42031;DHT22;27709;52.036;5.906;2023-08-08T12:47:27;24.70;71.30
42031;DHT22;27709;52.036;5.906;2023-08-08T12:49:54;24.50;70.30
42031;DHT22;27709;52.036;5.906;2023-08-08T12:52:21;24.20;72.40
42031;DHT22;27709;52.036;5.906;2023-08-08T12:54:47;24.00;71.90
42031;DHT22;27709;52.036;5.906;2023-08-08T12:57:13;23.80;72.70
42031;DHT22;27709;52.036;5.906;2023-08-08T12:59:38;23.80;73.00
42031;DHT22;27709;52.036;5.906;2023-08-08T13:02:04;24.00;73.40
42031;DHT22;27709;52.036;5.906;2023-08-08T13:04:32;24.20;73.20
42031;DHT22;27709;52.036;5.906;2023-08-08T13:06:57;24.40;73.30
42031;DHT22;27709;52.036;5.906;2023-08-08T13:09:23;24.40;73.50
42031;DHT22;27709;52.036;5.906;2023-08-08T13:11:48;24.40;73.40
42031;DHT22;27709;52.036;5.906;2023-08-08T13:14:14;24.20;72.70
42031;DHT22;27709;52.036;5.906;2023-08-08T13:16:39;24.00;72.20
42031;DHT22;27709;52.036;5.906;2023-08-08T13:19:05;23.80;73.20
42031;DHT22;27709;52.036;5.906;2023-08-08T13:21:32;23.70;73.30
42031;DHT22;27709;52.036;5.906;2023-08-08T13:23:58;23.50;74.50
42031;DHT22;27709;52.036;5.906;2023-08-08T13:26:24;23.50;74.60
42031;DHT22;27709;52.036;5.906;2023-08-08T13:28:50;23.40;74.40
42031;DHT22;27709;52.036;5.906;2023-08-08T13:31:16;23.40;75.20
42031;DHT22;27709;52.036;5.906;2023-08-08T13:33:41;23.50;75.20
42031;DHT22;27709;52.036;5.906;2023-08-08T13:36:07;23.60;74.20
42031;DHT22;27709;52.036;5.906;2023-08-08T13:38:32;23.60;74.80
42031;DHT22;27709;52.036;5.906;2023-08-08T13:41:01;23.60;74.70
42031;DHT22;27709;52.036;5.906;2023-08-08T13:43:26;23.40;74.70
42031;DHT22;27709;52.036;5.906;2023-08-08T13:45:52;23.40;75.30
42031;DHT22;27709;52.036;5.906;2023-08-08T13:48:18;23.60;75.70
42031;DHT22;27709;52.036;5.906;2023-08-08T13:50:43;23.70;74.90
42031;DHT22;27709;52.036;5.906;2023-08-08T13:53:10;23.50;75.50
42031;DHT22;27709;52.036;5.906;2023-08-08T13:55:36;23.30;75.10
42031;DHT22;27709;52.036;5.906;2023-08-08T13:58:06;23.10;76.10
42031;DHT22;27709;52.036;5.906;2023-08-08T14:00:32;22.90;76.20
42031;DHT22;27709;52.036;5.906;2023-08-08T14:02:58;22.90;77.20
42031;DHT22;27709;52.036;5.906;2023-08-08T14:05:24;22.90;75.90
42031;DHT22;27709;52.036;5.906;2023-08-08T14:07:50;22.90;76.40
42031;DHT22;27709;52.036;5.906;2023-08-08T14:10:15;23.00;77.70
42031;DHT22;27709;52.036;5.906;2023-08-08T14:12:43;23.10;78.50
42031;DHT22;27709;52.036;5.906;2023-08-08T14:15:10;23.20;78.00
42031;DHT22;27709;52.036;5.906;2023-08-08T14:17:36;23.20;77.30
42031;DHT22;27709;52.036;5.906;2023-08-08T14:20:01;23.30;78.20
42031;DHT22;27709;52.036;5.906;2023-08-08T14:22:33;23.30;78.10
42031;DHT22;27709;52.036;5.906;2023-08-08T14:25:00;23.30;77.40
42031;DHT22;27709;52.036;5.906;2023-08-08T14:27:27;23.30;78.10
42031;DHT22;27709;52.036;5.906;2023-08-08T14:29:53;23.20;78.10
42031;DHT22;27709;52.036;5.906;2023-08-08T14:32:18;23.20;77.20
42031;DHT22;27709;52.036;5.906;2023-08-08T14:34:44;23.00;77.30
42031;DHT22;27709;52.036;5.906;2023-08-08T14:37:09;22.90;78.20
42031;DHT22;27709;52.036;5.906;2023-08-08T14:39:37;22.80;78.00
42031;DHT22;27709;52.036;5.906;2023-08-08T14:42:03;22.80;77.30
42031;DHT22;27709;52.036;5.906;2023-08-08T14:44:31;22.90;77.40
42031;DHT22;27709;52.036;5.906;2023-08-08T14:46:57;22.90;77.80
42031;DHT22;27709;52.036;5.906;2023-08-08T14:49:22;22.90;76.20
42031;DHT22;27709;52.036;5.906;2023-08-08T14:51:52;22.70;77.10
42031;DHT22;27709;52.036;5.906;2023-08-08T14:54:17;22.70;77.30
42031;DHT22;27709;52.036;5.906;2023-08-08T14:56:43;22.60;77.10
42031;DHT22;27709;52.036;5.906;2023-08-08T14:59:08;22.50;78.10
42031;DHT22;27709;52.036;5.906;2023-08-08T15:01:34;22.60;77.80
42031;DHT22;27709;52.036;5.906;2023-08-08T15:04:02;22.70;78.50
42031;DHT22;27709;52.036;5.906;2023-08-08T15:06:29;22.80;78.60
42031;DHT22;27709;52.036;5.906;2023-08-08T15:08:54;22.70;78.40
42031;DHT22;27709;52.036;5.906;2023-08-08T15:11:20;22.70;78.40
42031;DHT22;27709;52.036;5.906;2023-08-08T15:13:46;22.70;77.80
42031;DHT22;27709;52.036;5.906;2023-08-08T15:16:15;22.80;78.00
42031;DHT22;27709;52.036;5.906;2023-08-08T15:18:40;23.00;77.10
42031;DHT22;27709;52.036;5.906;2023-08-08T15:21:10;22.90;76.10
42031;DHT22;27709;52.036;5.906;2023-08-08T15:23:38;23.00;76.80
42031;DHT22;27709;52.036;5.906;2023-08-08T15:26:04;23.10;76.20
42031;DHT22;27709;52.036;5.906;2023-08-08T15:28:30;23.10;76.00
42031;DHT22;27709;52.036;5.906;2023-08-08T15:30:55;23.00;75.70